Billund, Denmark
Current Conditions -  °F | °C
As of 11:50 PM on Friday 28 Nov 2014 (Local Time) from EKBI Reporting Station
Overcast Overcast  
Wind Chill: 29°   Ceiling: 2400
Heat Index: 37°   Visibility: 6mi
Dew Point: 28°   Wind: 13mph
Humidity: 70%   Direction: 120°ESE
Pressure: 30.24"   Gusts: NA
Location:  55.73°N, 9.11°E
Report Text: EKBI 282250Z AUTO 12011KT 9999NDV OVC024/// 03/M02 Q1024
Loading
Personal Weather Stations






























Interactive Weather Map New forecast layout! Learn more

10-Day Weather Forecast

Advertisements
Track Severe Weather on mobile